createdAt,value
2023-02-21T00:02:19.085Z,100552.00
2023-02-21T00:05:04.486Z,100544.91
2023-02-21T00:07:49.852Z,100555.63
2023-02-21T00:10:35.242Z,100565.88
2023-02-21T00:13:20.938Z,100561.31
2023-02-21T00:16:08.402Z,100551.69
2023-02-21T00:18:54.194Z,100558.75
2023-02-21T00:21:39.465Z,100559.59
2023-02-21T00:24:24.734Z,100566.00
2023-02-21T00:27:12.018Z,100571.81
2023-02-21T00:29:57.470Z,100564.72
2023-02-21T00:32:47.966Z,100574.88
2023-02-21T00:35:35.403Z,100576.53
2023-02-21T00:38:20.578Z,100584.81
2023-02-21T00:41:06.458Z,100585.94
2023-02-21T00:43:53.216Z,100591.31
2023-02-21T00:46:38.720Z,100580.38
2023-02-21T00:49:25.008Z,100577.25
2023-02-21T00:52:10.890Z,100572.38
2023-02-21T00:54:56.098Z,100583.00
2023-02-21T00:57:41.380Z,100564.75
2023-02-21T01:00:27.962Z,100574.50
2023-02-21T01:03:13.256Z,100565.00
2023-02-21T01:05:58.560Z,100566.84
2023-02-21T01:08:44.594Z,100566.00
2023-02-21T01:11:33.879Z,100566.09
2023-02-21T01:14:19.341Z,100563.84
2023-02-21T01:17:12.765Z,100567.50
2023-02-21T01:19:58.679Z,100572.28
2023-02-21T01:22:44.078Z,100576.22
2023-02-21T01:25:29.519Z,100565.78
2023-02-21T01:28:17.324Z,100577.84
2023-02-21T01:31:02.603Z,100579.56
2023-02-21T01:33:59.853Z,100579.84
2023-02-21T01:36:46.535Z,100577.94
2023-02-21T01:39:35.713Z,100569.00
2023-02-21T01:42:21.094Z,100567.31
2023-02-21T01:45:06.820Z,100567.59
2023-02-21T01:47:54.512Z,100558.63
2023-02-21T01:50:48.574Z,100559.16
2023-02-21T01:53:37.503Z,100565.88
2023-02-21T01:56:26.026Z,100567.97
2023-02-21T01:59:12.367Z,100553.72
2023-02-21T02:02:17.333Z,100553.31
2023-02-21T02:05:03.440Z,100546.22
2023-02-21T02:07:53.474Z,100560.31
2023-02-21T02:10:38.537Z,100551.50
2023-02-21T02:13:16.667Z,100563.75
2023-02-21T02:15:48.860Z,100546.00
2023-02-21T02:18:18.812Z,100551.56
2023-02-21T02:20:45.338Z,100544.31
2023-02-21T02:23:21.316Z,100550.97
2023-02-21T02:26:12.941Z,100548.56
2023-02-21T02:28:58.480Z,100542.47
2023-02-21T02:31:33.191Z,100543.44
2023-02-21T02:34:31.224Z,100535.69
2023-02-21T02:37:04.691Z,100533.84
2023-02-21T02:39:31.276Z,100534.88
2023-02-21T02:42:12.367Z,100544.09
2023-02-21T02:44:43.549Z,100537.31
2023-02-21T02:47:19.262Z,100537.19
2023-02-21T02:49:46.749Z,100539.75
2023-02-21T02:52:13.824Z,100533.34
2023-02-21T02:54:40.439Z,100527.47
2023-02-21T02:57:10.809Z,100522.28
2023-02-21T02:59:47.518Z,100523.13
2023-02-21T03:02:22.027Z,100525.03
2023-02-21T03:04:49.375Z,100525.94
2023-02-21T03:07:31.631Z,100530.19
2023-02-21T03:10:04.949Z,100525.44
2023-02-21T03:12:49.987Z,100527.25
2023-02-21T03:15:29.110Z,100527.84
2023-02-21T03:17:59.887Z,100520.72
2023-02-21T03:20:31.507Z,100520.19
2023-02-21T03:22:58.842Z,100509.22
2023-02-21T03:25:33.225Z,100512.03
2023-02-21T03:28:02.462Z,100514.63
2023-02-21T03:30:38.351Z,100509.94
2023-02-21T03:33:05.665Z,100502.53
2023-02-21T03:35:32.198Z,100505.50
2023-02-21T03:37:59.640Z,100505.38
2023-02-21T03:40:29.920Z,100496.66
2023-02-21T03:42:59.475Z,100501.91
2023-02-21T03:45:28.659Z,100507.19
2023-02-21T03:48:32.337Z,100502.81
2023-02-21T03:51:17.164Z,100502.16
2023-02-21T03:53:46.461Z,100496.75
2023-02-21T03:56:13.526Z,100498.50
2023-02-21T03:59:01.563Z,100498.56
2023-02-21T04:01:28.926Z,100493.31
2023-02-21T04:03:56.225Z,100504.66
2023-02-21T04:06:23.325Z,100510.66
2023-02-21T04:08:52.315Z,100509.34
2023-02-21T04:11:22.300Z,100504.66
2023-02-21T04:13:50.702Z,100510.84
2023-02-21T04:16:18.202Z,100510.84
2023-02-21T04:18:45.162Z,100505.69
2023-02-21T04:21:16.994Z,100510.84
2023-02-21T04:23:44.114Z,100519.34
2023-02-21T04:26:10.694Z,100526.28
2023-02-21T04:28:50.221Z,100515.81
2023-02-21T04:31:17.881Z,100523.13
2023-02-21T04:33:45.165Z,100527.69
2023-02-21T04:36:15.223Z,100519.16
2023-02-21T04:38:43.229Z,100529.53
2023-02-21T04:41:09.810Z,100529.03
2023-02-21T04:43:37.142Z,100539.09
2023-02-21T04:46:03.963Z,100526.03
2023-02-21T04:48:30.573Z,100522.50
2023-02-21T04:51:01.539Z,100517.66
2023-02-21T04:53:33.506Z,100519.50
2023-02-21T04:56:00.105Z,100522.81
2023-02-21T04:58:29.121Z,100522.69
2023-02-21T05:01:00.837Z,100511.03
2023-02-21T05:03:27.412Z,100508.50
2023-02-21T05:05:54.006Z,100516.69
2023-02-21T05:08:20.635Z,100517.72
2023-02-21T05:10:47.232Z,100522.66
2023-02-21T05:13:14.769Z,100515.91
2023-02-21T05:15:41.426Z,100520.88
2023-02-21T05:18:08.033Z,100514.38
2023-02-21T05:20:34.614Z,100505.38
2023-02-21T05:23:11.739Z,100522.81
2023-02-21T05:25:39.858Z,100513.84
2023-02-21T05:28:06.408Z,100528.72
2023-02-21T05:30:33.128Z,100528.63
2023-02-21T05:32:59.729Z,100520.31
2023-02-21T05:35:26.529Z,100525.50
2023-02-21T05:37:53.257Z,100528.06
2023-02-21T05:40:21.040Z,100521.78
2023-02-21T05:42:47.630Z,100516.13
2023-02-21T05:45:14.261Z,100518.44
2023-02-21T05:47:43.147Z,100520.16
2023-02-21T05:50:09.781Z,100522.56
2023-02-21T05:52:36.406Z,100523.22
2023-02-21T05:55:03.096Z,100522.81
2023-02-21T05:57:29.692Z,100528.63
2023-02-21T05:59:56.288Z,100527.22
2023-02-21T06:02:23.983Z,100539.47
2023-02-21T06:04:50.670Z,100532.13
2023-02-21T06:07:18.833Z,100536.88
2023-02-21T06:09:46.354Z,100535.09
2023-02-21T06:12:15.961Z,100537.00
2023-02-21T06:14:42.575Z,100534.69
2023-02-21T06:17:09.085Z,100540.75
2023-02-21T06:19:35.714Z,100541.44
2023-02-21T06:22:04.577Z,100542.78
2023-02-21T06:24:31.182Z,100551.19
2023-02-21T06:27:00.677Z,100554.94
2023-02-21T06:29:27.293Z,100566.97
2023-02-21T06:31:57.855Z,100566.44
2023-02-21T06:34:24.803Z,100573.59
2023-02-21T06:36:53.975Z,100576.28
2023-02-21T06:39:20.737Z,100575.91
2023-02-21T06:41:49.383Z,100577.03
2023-02-21T06:44:16.808Z,100579.31
2023-02-21T06:46:43.407Z,100589.59
2023-02-21T06:49:12.672Z,100588.66
2023-02-21T06:51:40.266Z,100584.91
2023-02-21T06:54:08.037Z,100594.41
2023-02-21T06:56:34.861Z,100597.75
2023-02-21T06:59:01.453Z,100595.06
2023-02-21T07:01:29.140Z,100601.88
2023-02-21T07:03:56.847Z,100593.91
2023-02-21T07:06:23.981Z,100602.72
2023-02-21T07:08:50.921Z,100592.28
2023-02-21T07:11:23.103Z,100594.41
2023-02-21T07:13:50.538Z,100603.50
2023-02-21T07:16:18.203Z,100603.81
2023-02-21T07:18:45.523Z,100602.84
2023-02-21T07:21:12.654Z,100611.34
2023-02-21T07:23:39.409Z,100613.41
2023-02-21T07:26:08.326Z,100616.03
2023-02-21T07:28:34.962Z,100609.94
2023-02-21T07:31:01.933Z,100612.03
2023-02-21T07:33:30.866Z,100614.13
2023-02-21T07:35:57.404Z,100607.88
2023-02-21T07:38:24.918Z,100621.91
2023-02-21T07:40:53.803Z,100616.03
2023-02-21T07:43:22.796Z,100623.25
2023-02-21T07:45:49.320Z,100620.28
2023-02-21T07:48:16.077Z,100625.44
2023-02-21T07:50:42.850Z,100628.47
2023-02-21T07:53:12.117Z,100630.25
2023-02-21T07:55:39.007Z,100641.69
2023-02-21T07:58:05.842Z,100641.47
2023-02-21T08:00:32.709Z,100645.28
2023-02-21T08:02:59.743Z,100637.41
2023-02-21T08:05:26.319Z,100643.00
2023-02-21T08:07:52.931Z,100646.66
2023-02-21T08:10:24.203Z,100648.28
2023-02-21T08:12:51.342Z,100644.50
2023-02-21T08:15:17.973Z,100647.78
2023-02-21T08:17:44.694Z,100644.44
2023-02-21T08:20:11.362Z,100650.56
2023-02-21T08:22:37.921Z,100653.75
2023-02-21T08:25:04.648Z,100659.66
2023-02-21T08:27:34.348Z,100658.25
2023-02-21T08:30:01.002Z,100663.38
2023-02-21T08:32:30.801Z,100654.66
2023-02-21T08:34:57.469Z,100667.84
2023-02-21T08:37:32.848Z,100658.88
2023-02-21T08:40:01.064Z,100672.50
2023-02-21T08:42:27.647Z,100667.94
2023-02-21T08:44:54.404Z,100665.41
2023-02-21T08:47:20.926Z,100657.22
2023-02-21T08:49:50.164Z,100661.88
2023-02-21T08:52:21.855Z,100672.72
2023-02-21T08:54:48.452Z,100672.81
2023-02-21T08:57:15.119Z,100670.88
2023-02-21T08:59:49.985Z,100683.94
2023-02-21T09:02:24.048Z,100675.06
2023-02-21T09:04:51.794Z,100676.47
2023-02-21T09:07:19.302Z,100672.22
2023-02-21T09:09:46.045Z,100683.75
2023-02-21T09:12:13.182Z,100679.00
2023-02-21T09:14:43.280Z,100691.88
2023-02-21T09:17:11.472Z,100690.78
2023-02-21T09:19:38.078Z,100692.72
2023-02-21T09:22:09.499Z,100689.44
2023-02-21T09:24:36.131Z,100690.66
2023-02-21T09:27:03.347Z,100700.75
2023-02-21T09:29:44.911Z,100685.84
2023-02-21T09:32:12.502Z,100689.94
2023-02-21T09:34:39.830Z,100690.09
2023-02-21T09:37:06.779Z,100695.75
2023-02-21T09:39:33.377Z,100694.41
2023-02-21T09:42:00.155Z,100688.72
2023-02-21T09:44:28.709Z,100699.25
2023-02-21T09:46:57.354Z,100693.75
2023-02-21T09:49:38.853Z,100683.84
2023-02-21T09:52:06.014Z,100695.38
2023-02-21T09:54:38.165Z,100684.16
2023-02-21T09:57:06.263Z,100685.69
2023-02-21T09:59:33.404Z,100681.34
2023-02-21T10:01:59.956Z,100690.91
2023-02-21T10:04:35.889Z,100688.94
2023-02-21T10:07:10.285Z,100693.56
2023-02-21T10:09:50.728Z,100688.28
2023-02-21T10:12:25.082Z,100690.03
2023-02-21T10:15:15.736Z,100693.38
2023-02-21T10:18:04.261Z,100693.16
2023-02-21T10:20:45.276Z,100691.09
2023-02-21T10:23:16.807Z,100698.44
2023-02-21T10:25:44.934Z,100705.53
2023-02-21T10:28:23.529Z,100705.75
2023-02-21T10:30:51.226Z,100714.28
2023-02-21T10:33:17.975Z,100715.78
2023-02-21T10:35:44.708Z,100718.47
2023-02-21T10:38:14.331Z,100715.88
2023-02-21T10:40:50.948Z,100716.53
2023-02-21T10:43:17.558Z,100724.19
2023-02-21T10:45:56.426Z,100720.69
2023-02-21T10:48:25.824Z,100729.22
2023-02-21T10:51:04.672Z,100732.81
2023-02-21T10:53:33.036Z,100730.97
2023-02-21T10:56:15.303Z,100730.88
2023-02-21T10:59:08.461Z,100741.19
2023-02-21T11:01:43.353Z,100743.13
2023-02-21T11:04:27.222Z,100745.19
2023-02-21T11:07:05.213Z,100747.03
2023-02-21T11:09:31.872Z,100751.00
2023-02-21T11:12:04.576Z,100746.69
2023-02-21T11:14:32.080Z,100755.81
2023-02-21T11:17:14.520Z,100742.25
2023-02-21T11:19:47.802Z,100748.78
2023-02-21T11:22:15.170Z,100742.09
2023-02-21T11:24:49.034Z,100745.19
2023-02-21T11:27:15.742Z,100739.38
2023-02-21T11:29:43.868Z,100754.06
2023-02-21T11:32:13.682Z,100743.78
2023-02-21T11:34:48.583Z,100743.03
2023-02-21T11:37:16.152Z,100743.69
2023-02-21T11:39:50.422Z,100738.50
2023-02-21T11:42:40.095Z,100735.47
2023-02-21T11:45:12.500Z,100736.97
2023-02-21T11:47:43.444Z,100745.81
2023-02-21T11:50:12.698Z,100734.88
2023-02-21T11:52:43.171Z,100739.38
2023-02-21T11:55:13.981Z,100728.66
2023-02-21T11:57:47.132Z,100737.63
2023-02-21T12:00:20.147Z,100735.88
2023-02-21T12:02:59.248Z,100734.34
2023-02-21T12:05:44.934Z,100732.97
2023-02-21T12:08:11.501Z,100729.34
2023-02-21T12:10:57.672Z,100728.47
2023-02-21T12:13:30.221Z,100717.66
2023-02-21T12:15:56.909Z,100736.66
2023-02-21T12:18:23.509Z,100723.91
2023-02-21T12:21:08.884Z,100722.38
2023-02-21T12:23:52.376Z,100724.44
2023-02-21T12:26:28.574Z,100723.63
2023-02-21T12:29:14.152Z,100725.28
2023-02-21T12:31:59.561Z,100728.09
2023-02-21T12:34:45.165Z,100722.44
2023-02-21T12:37:14.611Z,100719.38
2023-02-21T12:39:55.531Z,100722.03
2023-02-21T12:42:22.125Z,100725.03
2023-02-21T12:44:58.427Z,100722.44
2023-02-21T12:47:36.763Z,100703.94
2023-02-21T12:50:12.054Z,100709.97
2023-02-21T12:52:40.987Z,100711.25
2023-02-21T12:55:16.118Z,100706.81
2023-02-21T12:57:56.852Z,100703.50
2023-02-21T13:00:25.412Z,100702.66
2023-02-21T13:02:52.437Z,100704.56
2023-02-21T13:05:34.086Z,100699.56
2023-02-21T13:08:04.166Z,100710.47
2023-02-21T13:10:51.624Z,100698.59
2023-02-21T13:13:27.042Z,100703.34
2023-02-21T13:15:54.729Z,100705.66
2023-02-21T13:18:24.032Z,100700.97
2023-02-21T13:21:00.500Z,100696.44
2023-02-21T13:24:04.886Z,100702.66
2023-02-21T13:26:53.063Z,100691.78
2023-02-21T13:29:25.782Z,100691.75
2023-02-21T13:32:12.528Z,100697.84
2023-02-21T13:34:45.688Z,100698.19
2023-02-21T13:37:23.358Z,100689.16
2023-02-21T13:39:55.343Z,100691.56
2023-02-21T13:42:24.970Z,100683.28
2023-02-21T13:45:04.578Z,100683.50
2023-02-21T13:47:51.171Z,100689.78
2023-02-21T13:50:38.346Z,100683.91
2023-02-21T13:53:20.680Z,100684.19
2023-02-21T13:55:59.606Z,100689.09
2023-02-21T13:58:37.508Z,100688.16
2023-02-21T14:01:13.312Z,100688.28
2023-02-21T14:03:40.332Z,100685.59
2023-02-21T14:06:09.852Z,100693.63
2023-02-21T14:08:41.955Z,100689.81
2023-02-21T14:11:10.390Z,100680.75
2023-02-21T14:13:52.624Z,100685.94
2023-02-21T14:16:26.306Z,100682.22
2023-02-21T14:18:57.918Z,100685.66
2023-02-21T14:21:24.489Z,100692.66
2023-02-21T14:23:57.124Z,100689.09
2023-02-21T14:26:44.457Z,100685.44
2023-02-21T14:29:30.119Z,100683.44
2023-02-21T14:32:15.218Z,100687.63
2023-02-21T14:34:51.095Z,100683.56
2023-02-21T14:37:35.767Z,100687.53
2023-02-21T14:40:11.470Z,100682.22
2023-02-21T14:42:56.461Z,100692.53
2023-02-21T14:45:35.322Z,100681.69
2023-02-21T14:48:08.085Z,100674.16
2023-02-21T14:50:43.973Z,100681.94
2023-02-21T14:53:29.415Z,100677.97
2023-02-21T14:56:08.359Z,100685.00
2023-02-21T14:58:52.234Z,100684.00
2023-02-21T15:01:42.303Z,100685.53
2023-02-21T15:04:15.043Z,100689.63
2023-02-21T15:06:44.265Z,100684.59
2023-02-21T15:09:12.111Z,100690.69
2023-02-21T15:11:40.097Z,100692.81
2023-02-21T15:14:20.380Z,100692.16
2023-02-21T15:16:47.790Z,100692.06
2023-02-21T15:19:20.247Z,100691.75
2023-02-21T15:21:46.790Z,100693.00
2023-02-21T15:24:17.700Z,100692.00
2023-02-21T15:26:46.728Z,100690.16
2023-02-21T15:29:14.712Z,100689.75
2023-02-21T15:31:42.772Z,100689.81
2023-02-21T15:34:30.790Z,100694.72
2023-02-21T15:37:14.288Z,100691.34
2023-02-21T15:39:44.019Z,100695.81
2023-02-21T15:42:12.856Z,100686.03
2023-02-21T15:44:46.702Z,100697.34
2023-02-21T15:47:15.964Z,100690.09
2023-02-21T15:50:06.011Z,100696.31
2023-02-21T15:52:37.567Z,100703.19
2023-02-21T15:55:13.311Z,100691.63
2023-02-21T15:57:39.967Z,100699.34
2023-02-21T16:00:25.211Z,100697.59
2023-02-21T16:02:51.932Z,100688.38
2023-02-21T16:05:28.827Z,100693.28
2023-02-21T16:08:05.104Z,100694.66
2023-02-21T16:10:32.172Z,100696.75
2023-02-21T16:13:00.161Z,100695.47
2023-02-21T16:15:31.698Z,100697.28
2023-02-21T16:18:00.659Z,100696.25
2023-02-21T16:20:30.149Z,100695.78
2023-02-21T16:23:15.197Z,100693.28
2023-02-21T16:26:17.810Z,100689.72
2023-02-21T16:28:45.740Z,100688.50
2023-02-21T16:31:16.855Z,100691.69
2023-02-21T16:33:43.652Z,100700.16
2023-02-21T16:36:26.056Z,100691.88
2023-02-21T16:38:52.712Z,100704.56
2023-02-21T16:41:19.561Z,100700.44
2023-02-21T16:43:47.669Z,100701.66
2023-02-21T16:46:14.897Z,100711.09
2023-02-21T16:48:41.576Z,100709.28
2023-02-21T16:51:14.095Z,100719.25
2023-02-21T16:53:41.535Z,100718.63
2023-02-21T16:56:08.439Z,100727.47
2023-02-21T16:58:36.724Z,100729.75
2023-02-21T17:01:08.329Z,100725.81
2023-02-21T17:03:34.942Z,100737.53
2023-02-21T17:06:01.624Z,100740.84
2023-02-21T17:08:28.629Z,100740.50
2023-02-21T17:10:55.923Z,100739.84
2023-02-21T17:13:22.648Z,100740.34
2023-02-21T17:15:49.481Z,100743.56
2023-02-21T17:18:16.097Z,100746.75
2023-02-21T17:20:42.719Z,100744.84
2023-02-21T17:23:09.363Z,100747.88
2023-02-21T17:25:36.597Z,100749.03
2023-02-21T17:28:03.745Z,100760.38
2023-02-21T17:30:31.498Z,100756.72
2023-02-21T17:32:58.253Z,100754.38
2023-02-21T17:35:24.912Z,100758.44
2023-02-21T17:37:51.703Z,100755.22
2023-02-21T17:40:19.493Z,100755.44
2023-02-21T17:42:46.116Z,100765.63
2023-02-21T17:45:13.033Z,100769.34
2023-02-21T17:47:39.718Z,100769.34
2023-02-21T17:50:07.836Z,100767.72
2023-02-21T17:52:34.538Z,100766.34
2023-02-21T17:55:07.261Z,100770.13
2023-02-21T17:57:38.784Z,100770.31
2023-02-21T18:00:09.573Z,100763.72
2023-02-21T18:02:38.839Z,100774.97
2023-02-21T18:05:05.825Z,100778.50
2023-02-21T18:07:32.930Z,100776.38
2023-02-21T18:10:03.127Z,100785.66
2023-02-21T18:12:30.523Z,100790.81
2023-02-21T18:14:57.054Z,100784.94
2023-02-21T18:17:23.668Z,100793.50
2023-02-21T18:19:50.235Z,100792.31
2023-02-21T18:22:16.846Z,100795.88
2023-02-21T18:24:44.769Z,100794.47
2023-02-21T18:27:11.345Z,100791.25
2023-02-21T18:29:40.036Z,100798.56
2023-02-21T18:32:06.801Z,100797.06
2023-02-21T18:34:34.454Z,100796.78
2023-02-21T18:37:02.989Z,100794.84
2023-02-21T18:39:29.536Z,100798.03
2023-02-21T18:41:56.230Z,100794.03
2023-02-21T18:44:22.914Z,100799.81
2023-02-21T18:46:54.555Z,100798.88
2023-02-21T18:49:21.966Z,100797.59
2023-02-21T18:51:48.679Z,100791.91
2023-02-21T18:54:15.785Z,100792.63
2023-02-21T18:56:49.649Z,100797.59
2023-02-21T18:59:37.592Z,100799.56
2023-02-21T19:02:07.174Z,100807.81
2023-02-21T19:04:33.912Z,100809.88
2023-02-21T19:07:06.084Z,100805.44
2023-02-21T19:09:32.627Z,100816.13
2023-02-21T19:11:59.127Z,100812.47
2023-02-21T19:14:25.846Z,100811.66
2023-02-21T19:16:52.429Z,100816.84
2023-02-21T19:19:19.083Z,100821.28
2023-02-21T19:21:48.015Z,100816.44
2023-02-21T19:24:14.633Z,100819.59
2023-02-21T19:26:44.244Z,100820.94
2023-02-21T19:29:10.863Z,100823.44
2023-02-21T19:31:37.453Z,100814.81
2023-02-21T19:34:04.930Z,100818.13
2023-02-21T19:36:31.645Z,100820.41
2023-02-21T19:38:58.198Z,100812.63
2023-02-21T19:41:25.804Z,100815.91
2023-02-21T19:43:52.358Z,100826.69
2023-02-21T19:46:27.229Z,100818.16
2023-02-21T19:48:54.123Z,100831.75
2023-02-21T19:51:22.784Z,100831.81
2023-02-21T19:53:51.527Z,100834.88
2023-02-21T19:56:18.119Z,100835.53
2023-02-21T19:58:45.431Z,100841.63
2023-02-21T20:01:12.022Z,100838.03
2023-02-21T20:03:40.817Z,100833.81
2023-02-21T20:06:07.476Z,100842.00
2023-02-21T20:08:34.046Z,100842.84
2023-02-21T20:11:00.718Z,100837.88
2023-02-21T20:13:27.336Z,100836.25
2023-02-21T20:15:53.952Z,100840.19
2023-02-21T20:18:20.594Z,100841.72
2023-02-21T20:20:47.464Z,100837.69
2023-02-21T20:23:14.069Z,100848.47
2023-02-21T20:25:40.676Z,100843.75
2023-02-21T20:28:07.379Z,100838.66
2023-02-21T20:30:34.016Z,100839.97
2023-02-21T20:33:01.446Z,100843.78
2023-02-21T20:35:31.468Z,100845.50
2023-02-21T20:38:05.269Z,100843.75
2023-02-21T20:40:32.697Z,100839.25
2023-02-21T20:42:59.383Z,100840.19
2023-02-21T20:45:29.042Z,100840.19
2023-02-21T20:47:55.674Z,100841.81
2023-02-21T20:50:24.062Z,100843.16
2023-02-21T20:52:53.112Z,100833.47
2023-02-21T20:55:23.581Z,100836.31
2023-02-21T20:57:50.279Z,100838.34
2023-02-21T21:00:18.932Z,100830.97
2023-02-21T21:02:45.597Z,100838.16
2023-02-21T21:05:16.742Z,100836.00
2023-02-21T21:07:44.257Z,100830.97
2023-02-21T21:10:14.475Z,100825.28
2023-02-21T21:12:41.725Z,100827.41
2023-02-21T21:15:09.896Z,100824.84
2023-02-21T21:17:37.090Z,100837.03
2023-02-21T21:20:08.975Z,100839.59
2023-02-21T21:22:36.576Z,100838.16
2023-02-21T21:25:04.801Z,100835.63
2023-02-21T21:27:32.825Z,100834.00
2023-02-21T21:29:59.649Z,100834.50
2023-02-21T21:32:26.234Z,100833.28
2023-02-21T21:34:54.084Z,100836.13
2023-02-21T21:37:22.344Z,100846.69
2023-02-21T21:39:49.874Z,100839.69
2023-02-21T21:42:22.263Z,100837.03
2023-02-21T21:44:58.881Z,100835.75
2023-02-21T21:47:27.452Z,100840.19
2023-02-21T21:49:55.259Z,100832.59
2023-02-21T21:52:23.897Z,100842.53
2023-02-21T21:54:51.006Z,100840.31
2023-02-21T21:57:19.580Z,100834.41
2023-02-21T21:59:49.076Z,100840.19
2023-02-21T22:02:15.748Z,100831.69
2023-02-21T22:04:42.389Z,100832.41
2023-02-21T22:07:09.709Z,100828.72
2023-02-21T22:09:36.422Z,100827.78
2023-02-21T22:12:03.690Z,100825.06
2023-02-21T22:14:30.310Z,100826.22
2023-02-21T22:16:56.858Z,100829.03
2023-02-21T22:19:24.372Z,100818.78
2023-02-21T22:21:55.204Z,100823.84
2023-02-21T22:24:25.391Z,100823.53
2023-02-21T22:26:53.011Z,100819.06
2023-02-21T22:29:20.090Z,100828.72
2023-02-21T22:31:48.000Z,100815.16
2023-02-21T22:34:23.211Z,100822.66
2023-02-21T22:36:52.884Z,100813.75
2023-02-21T22:39:21.580Z,100819.28
2023-02-21T22:41:49.117Z,100814.09
2023-02-21T22:44:16.163Z,100810.84
2023-02-21T22:46:44.768Z,100814.41
2023-02-21T22:49:16.869Z,100806.88
2023-02-21T22:51:43.779Z,100810.41
2023-02-21T22:54:14.401Z,100812.06
2023-02-21T22:56:50.929Z,100804.06
2023-02-21T22:59:19.240Z,100798.47
2023-02-21T23:01:45.803Z,100801.81
2023-02-21T23:04:18.490Z,100793.50
2023-02-21T23:06:45.174Z,100801.25
2023-02-21T23:09:14.322Z,100791.00
2023-02-21T23:11:42.286Z,100785.72
2023-02-21T23:14:09.162Z,100787.72
2023-02-21T23:16:35.873Z,100786.38
2023-02-21T23:19:02.481Z,100785.00
2023-02-21T23:21:30.515Z,100778.94
2023-02-21T23:23:58.298Z,100783.22
2023-02-21T23:26:26.417Z,100778.63
2023-02-21T23:28:52.961Z,100777.09
2023-02-21T23:31:21.784Z,100777.81
2023-02-21T23:33:48.877Z,100766.06
2023-02-21T23:36:22.681Z,100774.84
2023-02-21T23:38:50.449Z,100769.19
2023-02-21T23:41:17.680Z,100776.19
2023-02-21T23:43:46.454Z,100770.00
2023-02-21T23:46:19.163Z,100770.63
2023-02-21T23:48:45.823Z,100773.53
2023-02-21T23:51:13.644Z,100773.06
2023-02-21T23:53:41.607Z,100771.38
2023-02-21T23:56:13.428Z,100766.38
2023-02-21T23:58:44.371Z,100772.69
